Terminal Aerodrome Forecast
Issued by NWS Detroit/Pontiac, MI

Home | Current Version | Previous Version | Text Only | Print | Product List | Glossary On
Versions: 1 2 3 4 5 6 7 8 9 10 11 12 13 14 15 16 17 18 19
371
FTUS43 KDTX 230907 AAA
TAFFNT
TAF AMD
KFNT 230907Z 2309/2406 VRB03KT 6SM BR SKC
      TEMPO 2309/2312 2SM BR SKC
     FM231300 27004KT P6SM SKC
     FM231600 30005KT P6SM SKC
     FM232300 07005KT P6SM SCT250=

USA.gov is the U.S. government's official web portal to all federal, state and local government web resources and services.